Wetterdaten: Woche 31.03.25 - 06.04.25 (KW14)
Datum Zeit Temp. I. Temp. A. Feuchte I. Feuchte A. Luftdruck Regen Wind Richtung Sonnenschein Solar Taupunkt Windchill Windböen
31.03.2025 00:00 21,7 °C 7,6 °C 52 % 79 % 1013,6 hPa 0,0 l/m² 14,9 km/h (3 Bft) W 0,00 h 0 W/m² 4,2 °C 2,4 °C 20,8 km/h (4 Bft)
31.03.2025 01:00 21,7 °C 7,5 °C 52 % 83 % 1014,1 hPa 0,0 l/m² 17,6 km/h (3 Bft) W 0,00 h 0 W/m² 4,8 °C 1,1 °C 24,4 km/h (4 Bft)
31.03.2025 02:00 21,7 °C 7,1 °C 51 % 85 % 1014,4 hPa 0,0 l/m² 15,3 km/h (3 Bft) W 0,00 h 0 W/m² 4,7 °C 1,6 °C 22,2 km/h (4 Bft)
31.03.2025 03:00 21,7 °C 6,8 °C 51 % 86 % 1014,8 hPa 0,0 l/m² 15,4 km/h (3 Bft) W 0,00 h 0 W/m² 4,7 °C 1,2 °C 22,0 km/h (4 Bft)
31.03.2025 04:00 21,6 °C 6,8 °C 51 % 87 % 1015,2 hPa 0,0 l/m² 15,1 km/h (3 Bft) W 0,00 h 0 W/m² 4,8 °C 1,3 °C 21,2 km/h (4 Bft)
31.03.2025 05:00 21,6 °C 6,6 °C 51 % 88 % 1015,7 hPa 0,0 l/m² 10,6 km/h (2 Bft) W-NW 0,00 h 0 W/m² 4,7 °C 3,6 °C 17,3 km/h (3 Bft)
31.03.2025 06:00 21,6 °C 6,6 °C 51 % 87 % 1016,4 hPa 0,0 l/m² 10,7 km/h (2 Bft) W 0,00 h 0 W/m² 4,7 °C 3,5 °C 18,5 km/h (3 Bft)
31.03.2025 07:00 21,6 °C 6,7 °C 49 % 87 % 1017,4 hPa 0,0 l/m² 8,6 km/h (2 Bft) W-NW 0,00 h 9 W/m² 4,7 °C 4,8 °C 15,6 km/h (3 Bft)
31.03.2025 08:00 21,6 °C 6,4 °C 49 % 88 % 1018,5 hPa 0,0 l/m² 10,1 km/h (2 Bft) W-NW 0,07 h 33 W/m² 4,6 °C 3,7 °C 18,2 km/h (3 Bft)
31.03.2025 09:00 21,6 °C 7,0 °C 49 % 86 % 1019,4 hPa 0,0 l/m² 11,1 km/h (2 Bft) NW 0,97 h 83 W/m² 4,9 °C 3,7 °C 19,7 km/h (3 Bft)
31.03.2025 10:00 21,6 °C 7,4 °C 49 % 82 % 1020,3 hPa 0,0 l/m² 13,8 km/h (3 Bft) W-NW 0,77 h 74 W/m² 4,5 °C 2,6 °C 24,1 km/h (4 Bft)
31.03.2025 11:00 21,6 °C 7,2 °C 48 % 82 % 1021,2 hPa 0,2 l/m² 13,7 km/h (3 Bft) NW 0,92 h 71 W/m² 4,3 °C 2,6 °C 23,2 km/h (4 Bft)
31.03.2025 12:00 21,6 °C 7,1 °C 48 % 83 % 1021,8 hPa 0,0 l/m² 10,8 km/h (2 Bft) W-NW 0,82 h 60 W/m² 4,4 °C 3,9 °C 18,5 km/h (3 Bft)
31.03.2025 13:00 21,6 °C 6,7 °C 48 % 86 % 1022,5 hPa 0,2 l/m² 10,8 km/h (2 Bft) NW 0,77 h 82 W/m² 4,6 °C 3,6 °C 18,7 km/h (3 Bft)
31.03.2025 14:00 21,6 °C 8,0 °C 48 % 84 % 1022,9 hPa 0,0 l/m² 16,0 km/h (3 Bft) NW 1,00 h 159 W/m² 5,5 °C 2,4 °C 23,8 km/h (4 Bft)
31.03.2025 15:00 21,6 °C 8,6 °C 48 % 81 % 1023,2 hPa 0,0 l/m² 12,2 km/h (2 Bft) NW 1,00 h 103 W/m² 5,5 °C 5,0 °C 19,7 km/h (3 Bft)
31.03.2025 16:00 21,6 °C 8,2 °C 49 % 81 % 1023,7 hPa 0,0 l/m² 11,7 km/h (2 Bft) NW 0,78 h 57 W/m² 5,2 °C 4,9 °C 18,4 km/h (3 Bft)
31.03.2025 17:00 21,6 °C 8,2 °C 48 % 81 % 1024,1 hPa 0,0 l/m² 10,4 km/h (2 Bft) NW 0,30 h 46 W/m² 5,1 °C 5,4 °C 16,4 km/h (3 Bft)
31.03.2025 18:00 21,7 °C 8,0 °C 50 % 79 % 1024,6 hPa 0,0 l/m² 11,6 km/h (2 Bft) NW 0,00 h 25 W/m² 4,7 °C 4,6 °C 18,2 km/h (3 Bft)
31.03.2025 19:00 21,9 °C 7,8 °C 52 % 79 % 1025,3 hPa 0,0 l/m² 8,1 km/h (2 Bft) NW 0,00 h 7 W/m² 4,4 °C 6,3 °C 13,3 km/h (3 Bft)
31.03.2025 20:00 22,0 °C 7,4 °C 52 % 80 % 1026,1 hPa 0,0 l/m² 7,8 km/h (2 Bft) N-NW 0,00 h 0 W/m² 4,1 °C 6,3 °C 12,0 km/h (2 Bft)
31.03.2025 21:00 21,9 °C 7,0 °C 51 % 81 % 1026,4 hPa 0,0 l/m² 5,0 km/h (1 Bft) N-NW 0,00 h 0 W/m² 4,0 °C 6,8 °C 7,7 km/h (2 Bft)
31.03.2025 22:00 21,8 °C 6,8 °C 52 % 81 % 1026,7 hPa 0,0 l/m² 6,1 km/h (2 Bft) N-NW 0,00 h 0 W/m² 3,6 °C 6,2 °C 9,4 km/h (2 Bft)
31.03.2025 23:00 21,8 °C 6,4 °C 53 % 82 % 1026,8 hPa 0,0 l/m² 2,8 km/h (1 Bft) NW 0,00 h 0 W/m² 3,6 °C 6,4 °C 5,1 km/h (1 Bft)
01.04.2025 00:00 21,7 °C 6,2 °C 53 % 84 % 1026,8 hPa 0,0 l/m² 3,6 km/h (1 Bft) NW 0,00 h 0 W/m² 3,7 °C 5,8 °C 6,6 km/h (2 Bft)
01.04.2025 01:00 21,7 °C 6,3 °C 53 % 84 % 1027,0 hPa 0,0 l/m² 5,8 km/h (2 Bft) N 0,00 h 0 W/m² 3,8 °C 6,1 °C 10,7 km/h (2 Bft)
01.04.2025 02:00 21,7 °C 6,0 °C 53 % 87 % 1026,7 hPa 0,2 l/m² 5,1 km/h (1 Bft) N-NW 0,00 h 0 W/m² 3,9 °C 5,9 °C 7,8 km/h (2 Bft)
01.04.2025 03:00 21,7 °C 5,4 °C 52 % 89 % 1026,8 hPa 0,0 l/m² 6,7 km/h (2 Bft) NW 0,00 h 0 W/m² 3,7 °C 4,9 °C 10,7 km/h (2 Bft)
01.04.2025 04:00 21,6 °C 5,3 °C 52 % 89 % 1026,8 hPa 0,0 l/m² 7,5 km/h (2 Bft) N-NW 0,00 h 0 W/m² 3,6 °C 4,1 °C 12,1 km/h (2 Bft)
01.04.2025 05:00 21,6 °C 4,9 °C 52 % 89 % 1026,9 hPa 0,0 l/m² 8,6 km/h (2 Bft) N-NW 0,00 h 0 W/m² 3,2 °C 3,1 °C 13,4 km/h (3 Bft)
01.04.2025 06:00 21,6 °C 4,7 °C 52 % 89 % 1027,3 hPa 0,0 l/m² 8,8 km/h (2 Bft) NW 0,00 h 0 W/m² 3,1 °C 2,6 °C 13,7 km/h (3 Bft)
01.04.2025 07:00 21,6 °C 4,3 °C 49 % 90 % 1027,6 hPa 0,0 l/m² 5,3 km/h (1 Bft) NW 0,00 h 15 W/m² 2,8 °C 4,0 °C 9,3 km/h (2 Bft)
01.04.2025 08:00 21,4 °C 4,6 °C 49 % 90 % 1028,3 hPa 0,0 l/m² 3,5 km/h (1 Bft) N-NW 0,40 h 47 W/m² 3,1 °C 4,6 °C 6,4 km/h (2 Bft)
01.04.2025 09:00 21,6 °C 6,1 °C 49 % 88 % 1028,7 hPa 0,0 l/m² 6,6 km/h (2 Bft) N 1,00 h 182 W/m² 4,3 °C 5,4 °C 10,9 km/h (2 Bft)
01.04.2025 10:00 21,7 °C 8,2 °C 49 % 82 % 1029,1 hPa 0,0 l/m² 7,0 km/h (2 Bft) NO 1,00 h 282 W/m² 5,4 °C 7,1 °C 11,4 km/h (2 Bft)
01.04.2025 11:00 21,8 °C 10,0 °C 48 % 77 % 1029,1 hPa 0,0 l/m² 9,7 km/h (2 Bft) O 1,00 h 361 W/m² 6,2 °C 7,9 °C 14,0 km/h (3 Bft)
01.04.2025 12:00 21,7 °C 10,4 °C 48 % 71 % 1028,9 hPa 0,0 l/m² 6,3 km/h (2 Bft) NO 1,00 h 139 W/m² 5,4 °C 9,8 °C 10,7 km/h (2 Bft)
01.04.2025 13:00 21,8 °C 13,2 °C 48 % 61 % 1028,5 hPa 0,0 l/m² 11,5 km/h (2 Bft) NO 1,00 h 527 W/m² 5,9 °C 10,6 °C 17,2 km/h (3 Bft)
01.04.2025 14:00 21,8 °C 12,3 °C 48 % 59 % 1028,4 hPa 0,0 l/m² 11,6 km/h (2 Bft) NO 1,00 h 171 W/m² 4,5 °C 9,5 °C 17,9 km/h (3 Bft)
01.04.2025 15:00 21,8 °C 13,3 °C 49 % 57 % 1027,9 hPa 0,0 l/m² 10,2 km/h (2 Bft) NO 1,00 h 290 W/m² 5,1 °C 11,3 °C 16,3 km/h (3 Bft)
01.04.2025 16:00 21,8 °C 13,5 °C 49 % 57 % 1027,3 hPa 0,0 l/m² 9,2 km/h (2 Bft) NO 1,00 h 266 W/m² 5,0 °C 11,8 °C 14,9 km/h (3 Bft)
01.04.2025 17:00 21,7 °C 13,4 °C 48 % 56 % 1027,0 hPa 0,0 l/m² 7,8 km/h (2 Bft) NO 1,00 h 182 W/m² 4,7 °C 12,4 °C 13,0 km/h (3 Bft)
01.04.2025 18:00 21,6 °C 12,7 °C 46 % 57 % 1026,7 hPa 0,0 l/m² 6,7 km/h (2 Bft) NO 0,53 h 67 W/m² 4,4 °C 12,2 °C 11,4 km/h (2 Bft)
01.04.2025 19:00 21,7 °C 11,2 °C 48 % 61 % 1026,7 hPa 0,0 l/m² 3,1 km/h (1 Bft) N-NO 0,00 h 14 W/m² 3,9 °C 11,2 °C 5,3 km/h (1 Bft)
01.04.2025 20:00 21,7 °C 6,9 °C 49 % 75 % 1027,1 hPa 0,0 l/m² 0,6 km/h (0 Bft) NO 0,00 h 0 W/m² 2,8 °C 6,9 °C 1,4 km/h (1 Bft)
01.04.2025 21:00 21,7 °C 4,7 °C 49 % 84 % 1027,4 hPa 0,0 l/m² 0,6 km/h (0 Bft) NO 0,00 h 0 W/m² 2,2 °C 4,7 °C 1,2 km/h (1 Bft)
01.04.2025 22:00 21,6 °C 3,8 °C 50 % 85 % 1027,5 hPa 0,0 l/m² 1,3 km/h (1 Bft) W 0,00 h 0 W/m² 1,4 °C 3,8 °C 1,9 km/h (1 Bft)
01.04.2025 23:00 21,6 °C 2,5 °C 52 % 87 % 1027,5 hPa 0,0 l/m² 0,6 km/h (0 Bft) W 0,00 h 0 W/m² 0,5 °C 2,5 °C 1,4 km/h (1 Bft)
02.04.2025 00:00 21,6 °C 1,9 °C 53 % 89 % 1027,6 hPa 0,0 l/m² 0,2 km/h (0 Bft) W 0,00 h 0 W/m² 0,3 °C 1,9 °C 0,7 km/h (0 Bft)
02.04.2025 01:00 21,6 °C 1,8 °C 53 % 90 % 1027,7 hPa 0,0 l/m² 1,6 km/h (1 Bft) SW 0,00 h 0 W/m² 0,4 °C 1,8 °C 2,3 km/h (1 Bft)
02.04.2025 02:00 21,6 °C 1,9 °C 53 % 90 % 1027,6 hPa 0,0 l/m² 0,6 km/h (0 Bft) W-SW 0,00 h 0 W/m² 0,4 °C 1,9 °C 1,2 km/h (1 Bft)
02.04.2025 03:00 21,6 °C 2,0 °C 53 % 90 % 1027,2 hPa 0,0 l/m² 1,4 km/h (1 Bft) W 0,00 h 0 W/m² 0,6 °C 2,0 °C 2,9 km/h (1 Bft)
02.04.2025 04:00 21,6 °C 1,3 °C 52 % 91 % 1026,9 hPa 0,0 l/m² 1,1 km/h (1 Bft) W 0,00 h 0 W/m² 0,1 °C 1,3 °C 1,9 km/h (1 Bft)
02.04.2025 05:00 21,6 °C 2,4 °C 53 % 92 % 1027,1 hPa 0,0 l/m² 2,1 km/h (1 Bft) W-NW 0,00 h 0 W/m² 1,1 °C 2,4 °C 4,3 km/h (1 Bft)
02.04.2025 06:00 21,6 °C 2,6 °C 52 % 91 % 1027,3 hPa 0,0 l/m² 3,4 km/h (1 Bft) NW 0,00 h 6 W/m² 1,3 °C 2,6 °C 6,3 km/h (2 Bft)
02.04.2025 07:00 21,5 °C 2,8 °C 49 % 90 % 1027,5 hPa 0,0 l/m² 2,7 km/h (1 Bft) NW 0,27 h 36 W/m² 1,4 °C 2,8 °C 5,4 km/h (2 Bft)
02.04.2025 08:00 21,4 °C 4,8 °C 49 % 88 % 1027,6 hPa 0,0 l/m² 5,8 km/h (2 Bft) N-NW 1,00 h 163 W/m² 3,0 °C 3,8 °C 9,2 km/h (2 Bft)
02.04.2025 09:00 21,7 °C 7,7 °C 49 % 81 % 1027,7 hPa 0,0 l/m² 7,1 km/h (2 Bft) N 1,00 h 272 W/m² 4,6 °C 6,7 °C 11,0 km/h (2 Bft)
02.04.2025 10:00 21,8 °C 10,0 °C 49 % 76 % 1027,9 hPa 0,0 l/m² 6,4 km/h (2 Bft) N-NO 1,00 h 362 W/m² 5,9 °C 9,4 °C 10,6 km/h (2 Bft)
02.04.2025 11:00 21,8 °C 12,4 °C 48 % 70 % 1027,6 hPa 0,0 l/m² 7,6 km/h (2 Bft) N-NO 1,00 h 422 W/m² 7,2 °C 11,4 °C 12,8 km/h (3 Bft)
02.04.2025 12:00 21,8 °C 14,3 °C 48 % 62 % 1027,2 hPa 0,0 l/m² 10,8 km/h (2 Bft) NO 1,00 h 456 W/m² 7,2 °C 12,1 °C 17,3 km/h (3 Bft)
02.04.2025 13:00 21,8 °C 15,3 °C 48 % 60 % 1026,9 hPa 0,0 l/m² 12,5 km/h (2 Bft) NO 1,00 h 449 W/m² 7,6 °C 12,5 °C 19,5 km/h (3 Bft)
02.04.2025 14:00 21,8 °C 15,8 °C 48 % 58 % 1026,4 hPa 0,0 l/m² 13,3 km/h (3 Bft) NO 1,00 h 363 W/m² 7,5 °C 12,8 °C 21,6 km/h (4 Bft)
02.04.2025 15:00 21,9 °C 16,3 °C 49 % 56 % 1025,8 hPa 0,0 l/m² 12,1 km/h (2 Bft) NO 1,00 h 325 W/m² 7,5 °C 13,8 °C 19,4 km/h (3 Bft)
02.04.2025 16:00 21,9 °C 17,0 °C 49 % 53 % 1025,0 hPa 0,0 l/m² 14,0 km/h (3 Bft) O-NO 1,00 h 286 W/m² 7,3 °C 14,0 °C 20,0 km/h (4 Bft)
02.04.2025 17:00 21,9 °C 16,1 °C 48 % 55 % 1024,6 hPa 0,0 l/m² 13,0 km/h (3 Bft) O-NO 1,00 h 160 W/m² 6,9 °C 13,3 °C 19,8 km/h (4 Bft)
02.04.2025 18:00 21,9 °C 15,2 °C 50 % 57 % 1024,6 hPa 0,0 l/m² 8,4 km/h (2 Bft) O-NO 0,65 h 60 W/m² 6,7 °C 14,1 °C 14,0 km/h (3 Bft)
02.04.2025 19:00 21,8 °C 13,9 °C 50 % 60 % 1024,7 hPa 0,0 l/m² 5,3 km/h (1 Bft) NO 0,00 h 14 W/m² 6,3 °C 13,6 °C 10,1 km/h (2 Bft)
02.04.2025 20:00 21,9 °C 12,3 °C 50 % 64 % 1024,9 hPa 0,0 l/m² 4,2 km/h (1 Bft) NO 0,00 h 0 W/m² 5,7 °C 12,3 °C 7,9 km/h (2 Bft)
02.04.2025 21:00 21,8 °C 8,7 °C 51 % 74 % 1025,2 hPa 0,0 l/m² 0,9 km/h (0 Bft) SW 0,00 h 0 W/m² 4,2 °C 8,7 °C 1,9 km/h (1 Bft)
02.04.2025 22:00 21,7 °C 5,7 °C 52 % 83 % 1025,5 hPa 0,0 l/m² 0,1 km/h (0 Bft) SW 0,00 h 0 W/m² 3,1 °C 5,7 °C 0,3 km/h (0 Bft)
02.04.2025 23:00 21,6 °C 5,0 °C 52 % 84 % 1025,8 hPa 0,0 l/m² 0,2 km/h (0 Bft) SW 0,00 h 0 W/m² 2,5 °C 5,0 °C 0,4 km/h (0 Bft)
03.04.2025 00:00 21,7 °C 4,3 °C 53 % 86 % 1026,1 hPa 0,0 l/m² 0,3 km/h (0 Bft) SW 0,00 h 0 W/m² 2,1 °C 4,3 °C 0,8 km/h (0 Bft)
03.04.2025 01:00 21,7 °C 3,4 °C 53 % 85 % 1026,2 hPa 0,0 l/m² 0,1 km/h (0 Bft) SW 0,00 h 0 W/m² 1,2 °C 3,4 °C 0,4 km/h (0 Bft)
03.04.2025 02:00 21,7 °C 2,4 °C 53 % 87 % 1026,2 hPa 0,0 l/m² 0,2 km/h (0 Bft) SW 0,00 h 0 W/m² 0,5 °C 2,4 °C 0,5 km/h (0 Bft)
03.04.2025 03:00 21,6 °C 1,5 °C 52 % 87 % 1026,2 hPa 0,0 l/m² 0,0 km/h (0 Bft) SW 0,00 h 0 W/m² -0,4 °C 1,5 °C 0,0 km/h (0 Bft)
03.04.2025 04:00 21,7 °C 0,6 °C 52 % 89 % 1026,3 hPa 0,0 l/m² 0,0 km/h (0 Bft) SW 0,00 h 0 W/m² -1,0 °C 0,6 °C 0,1 km/h (0 Bft)
03.04.2025 05:00 21,7 °C 0,6 °C 52 % 91 % 1026,4 hPa 0,0 l/m² 0,0 km/h (0 Bft) SW 0,00 h 0 W/m² -0,8 °C 0,6 °C 0,0 km/h (0 Bft)
03.04.2025 06:00 21,6 °C 0,9 °C 52 % 92 % 1026,9 hPa 0,0 l/m² 0,1 km/h (0 Bft) SW 0,00 h 7 W/m² -0,3 °C 0,9 °C 0,4 km/h (0 Bft)
03.04.2025 07:00 21,6 °C 1,9 °C 49 % 90 % 1027,2 hPa 0,0 l/m² 0,1 km/h (0 Bft) SW 0,27 h 37 W/m² 0,5 °C 1,9 °C 0,4 km/h (0 Bft)
03.04.2025 08:00 21,6 °C 4,9 °C 47 % 86 % 1027,5 hPa 0,0 l/m² 0,3 km/h (0 Bft) SW 1,00 h 150 W/m² 2,8 °C 4,9 °C 0,8 km/h (0 Bft)
03.04.2025 09:00 21,7 °C 8,5 °C 48 % 77 % 1027,6 hPa 0,0 l/m² 3,0 km/h (1 Bft) SW 1,00 h 294 W/m² 4,6 °C 8,4 °C 4,8 km/h (1 Bft)
03.04.2025 10:00 21,8 °C 11,6 °C 48 % 65 % 1027,7 hPa 0,0 l/m² 6,4 km/h (2 Bft) O 1,00 h 396 W/m² 5,3 °C 11,0 °C 10,0 km/h (2 Bft)
03.04.2025 11:00 21,9 °C 13,8 °C 48 % 62 % 1027,5 hPa 0,0 l/m² 8,2 km/h (2 Bft) O 1,00 h 476 W/m² 6,8 °C 12,6 °C 11,7 km/h (2 Bft)
03.04.2025 12:00 21,9 °C 15,7 °C 48 % 59 % 1027,2 hPa 0,0 l/m² 10,7 km/h (2 Bft) O 1,00 h 517 W/m² 7,6 °C 13,6 °C 14,9 km/h (3 Bft)
03.04.2025 13:00 21,9 °C 17,3 °C 48 % 53 % 1026,7 hPa 0,0 l/m² 10,8 km/h (2 Bft) O 1,00 h 533 W/m² 7,7 °C 15,5 °C 16,0 km/h (3 Bft)
03.04.2025 14:00 21,9 °C 18,6 °C 48 % 45 % 1026,2 hPa 0,0 l/m² 10,9 km/h (2 Bft) O 1,00 h 512 W/m² 6,6 °C 16,9 °C 15,9 km/h (3 Bft)
03.04.2025 15:00 21,9 °C 18,8 °C 48 % 46 % 1025,6 hPa 0,0 l/m² 11,5 km/h (2 Bft) O 1,00 h 454 W/m² 7,0 °C 16,9 °C 15,7 km/h (3 Bft)
03.04.2025 16:00 21,9 °C 19,1 °C 47 % 45 % 1024,8 hPa 0,0 l/m² 10,3 km/h (2 Bft) O-NO 1,00 h 362 W/m² 6,9 °C 17,6 °C 15,2 km/h (3 Bft)
03.04.2025 17:00 21,8 °C 18,2 °C 43 % 49 % 1024,4 hPa 0,0 l/m² 11,5 km/h (2 Bft) O 1,00 h 251 W/m² 7,2 °C 16,2 °C 15,4 km/h (3 Bft)
03.04.2025 18:00 21,7 °C 18,0 °C 43 % 47 % 1024,2 hPa 0,0 l/m² 7,3 km/h (2 Bft) O-NO 0,72 h 88 W/m² 6,5 °C 17,3 °C 11,1 km/h (2 Bft)
03.04.2025 19:00 21,7 °C 15,4 °C 45 % 53 % 1024,3 hPa 0,0 l/m² 3,8 km/h (1 Bft) O-NO 0,00 h 14 W/m² 5,9 °C 15,4 °C 5,8 km/h (2 Bft)
03.04.2025 20:00 21,9 °C 10,2 °C 50 % 71 % 1024,6 hPa 0,0 l/m² 0,1 km/h (0 Bft) O-NO 0,00 h 0 W/m² 5,2 °C 10,2 °C 0,3 km/h (0 Bft)
03.04.2025 21:00 22,0 °C 7,6 °C 51 % 78 % 1024,8 hPa 0,0 l/m² 0,0 km/h (0 Bft) O-NO 0,00 h 0 W/m² 4,0 °C 7,6 °C 0,0 km/h (0 Bft)
03.04.2025 22:00 21,9 °C 5,8 °C 51 % 84 % 1024,7 hPa 0,0 l/m² 0,0 km/h (0 Bft) O-NO 0,00 h 0 W/m² 3,4 °C 5,8 °C 0,0 km/h (0 Bft)
03.04.2025 23:00 21,7 °C 4,9 °C 51 % 88 % 1024,7 hPa 0,0 l/m² 0,0 km/h (0 Bft) O-NO 0,00 h 0 W/m² 3,0 °C 4,9 °C 0,0 km/h (0 Bft)
04.04.2025 00:00 21,7 °C 3,9 °C 50 % 89 % 1024,6 hPa 0,0 l/m² 0,0 km/h (0 Bft) O-NO 0,00 h 0 W/m² 2,2 °C 3,9 °C 0,0 km/h (0 Bft)
04.04.2025 01:00 21,7 °C 3,5 °C 50 % 89 % 1024,5 hPa 0,0 l/m² 0,0 km/h (0 Bft) W 0,00 h 0 W/m² 1,9 °C 3,5 °C 0,1 km/h (0 Bft)
04.04.2025 02:00 21,7 °C 2,8 °C 50 % 89 % 1024,1 hPa 0,0 l/m² 0,0 km/h (0 Bft) W 0,00 h 0 W/m² 1,2 °C 2,8 °C 0,0 km/h (0 Bft)
04.04.2025 03:00 21,7 °C 2,4 °C 49 % 89 % 1023,9 hPa 0,0 l/m² 0,0 km/h (0 Bft) W 0,00 h 0 W/m² 0,7 °C 2,4 °C 0,0 km/h (0 Bft)
04.04.2025 04:00 21,7 °C 2,1 °C 49 % 89 % 1023,7 hPa 0,0 l/m² 0,4 km/h (0 Bft) W 0,00 h 0 W/m² 0,5 °C 2,1 °C 0,6 km/h (0 Bft)
04.04.2025 05:00 21,8 °C 1,7 °C 49 % 90 % 1023,4 hPa 0,0 l/m² 0,3 km/h (0 Bft) W-SW 0,00 h 0 W/m² 0,3 °C 1,7 °C 0,7 km/h (0 Bft)
04.04.2025 06:00 21,7 °C 1,3 °C 49 % 90 % 1023,3 hPa 0,0 l/m² 0,0 km/h (0 Bft) W-SW 0,00 h 7 W/m² -0,2 °C 1,3 °C 0,0 km/h (0 Bft)
04.04.2025 07:00 21,7 °C 1,3 °C 48 % 90 % 1023,5 hPa 0,0 l/m² 0,0 km/h (0 Bft) W-SW 0,30 h 36 W/m² -0,1 °C 1,3 °C 0,0 km/h (0 Bft)
04.04.2025 08:00 21,8 °C 4,6 °C 48 % 92 % 1023,5 hPa 0,0 l/m² 0,0 km/h (0 Bft) W-SW 1,00 h 168 W/m² 3,3 °C 4,6 °C 0,1 km/h (0 Bft)
04.04.2025 09:00 21,9 °C 9,7 °C 47 % 86 % 1023,1 hPa 0,0 l/m² 0,1 km/h (0 Bft) SW 1,00 h 293 W/m² 7,4 °C 9,7 °C 0,3 km/h (0 Bft)
04.04.2025 10:00 22,1 °C 13,8 °C 47 % 73 % 1022,9 hPa 0,0 l/m² 0,7 km/h (0 Bft) SW 1,00 h 400 W/m² 8,9 °C 13,8 °C 1,1 km/h (0 Bft)
04.04.2025 11:00 22,0 °C 16,5 °C 46 % 64 % 1022,6 hPa 0,0 l/m² 4,5 km/h (1 Bft) O 1,00 h 475 W/m² 9,7 °C 16,4 °C 7,3 km/h (2 Bft)
04.04.2025 12:00 21,9 °C 18,3 °C 46 % 59 % 1021,9 hPa 0,0 l/m² 6,6 km/h (2 Bft) O 1,00 h 522 W/m² 10,0 °C 17,7 °C 10,1 km/h (2 Bft)
04.04.2025 13:00 22,0 °C 19,4 °C 47 % 55 % 1021,2 hPa 0,0 l/m² 5,7 km/h (2 Bft) O 1,00 h 534 W/m² 10,1 °C 19,1 °C 9,1 km/h (2 Bft)
04.04.2025 14:00 21,9 °C 20,2 °C 47 % 52 % 1020,3 hPa 0,0 l/m² 5,2 km/h (1 Bft) O 1,00 h 513 W/m² 10,1 °C 20,1 °C 8,4 km/h (2 Bft)
04.04.2025 15:00 22,0 °C 20,4 °C 48 % 49 % 1019,3 hPa 0,0 l/m² 3,4 km/h (1 Bft) O 1,00 h 455 W/m² 9,2 °C 20,3 °C 5,9 km/h (2 Bft)
04.04.2025 16:00 21,9 °C 20,4 °C 47 % 48 % 1018,4 hPa 0,0 l/m² 2,3 km/h (1 Bft) SO 1,00 h 368 W/m² 9,0 °C 20,4 °C 3,7 km/h (1 Bft)
04.04.2025 17:00 21,9 °C 20,4 °C 47 % 49 % 1017,5 hPa 0,0 l/m² 4,9 km/h (1 Bft) NW 1,00 h 253 W/m² 9,2 °C 20,3 °C 7,1 km/h (2 Bft)
04.04.2025 18:00 21,9 °C 19,8 °C 47 % 49 % 1017,2 hPa 0,0 l/m² 5,0 km/h (1 Bft) NW 0,73 h 92 W/m² 8,7 °C 19,8 °C 7,8 km/h (2 Bft)
04.04.2025 19:00 21,9 °C 16,5 °C 48 % 59 % 1016,8 hPa 0,0 l/m² 2,5 km/h (1 Bft) N-NW 0,00 h 14 W/m² 8,5 °C 16,5 °C 4,0 km/h (1 Bft)
04.04.2025 20:00 21,9 °C 10,7 °C 47 % 77 % 1016,7 hPa 0,0 l/m² 0,7 km/h (0 Bft) N-NW 0,00 h 0 W/m² 6,7 °C 10,7 °C 1,2 km/h (1 Bft)
04.04.2025 21:00 22,1 °C 8,9 °C 48 % 80 % 1016,7 hPa 0,0 l/m² 0,8 km/h (0 Bft) W 0,00 h 0 W/m² 5,5 °C 8,9 °C 1,6 km/h (1 Bft)
04.04.2025 22:00 22,0 °C 7,6 °C 48 % 83 % 1016,5 hPa 0,0 l/m² 0,2 km/h (0 Bft) W 0,00 h 0 W/m² 5,0 °C 7,6 °C 0,5 km/h (0 Bft)
04.04.2025 23:00 21,8 °C 6,8 °C 48 % 87 % 1016,4 hPa 0,0 l/m² 0,5 km/h (0 Bft) W 0,00 h 0 W/m² 4,8 °C 6,8 °C 1,5 km/h (1 Bft)
05.04.2025 00:00 21,8 °C 6,4 °C 48 % 87 % 1016,1 hPa 0,0 l/m² 0,4 km/h (0 Bft) W 0,00 h 0 W/m² 4,3 °C 6,4 °C 1,3 km/h (1 Bft)
05.04.2025 01:00 21,8 °C 5,4 °C 48 % 89 % 1016,1 hPa 0,0 l/m² 3,0 km/h (1 Bft) SW 0,00 h 0 W/m² 3,6 °C 5,4 °C 4,8 km/h (1 Bft)
05.04.2025 02:00 21,8 °C 6,6 °C 49 % 87 % 1015,9 hPa 0,0 l/m² 3,0 km/h (1 Bft) SW 0,00 h 0 W/m² 4,5 °C 6,5 °C 4,6 km/h (1 Bft)
05.04.2025 03:00 21,8 °C 6,9 °C 49 % 86 % 1015,9 hPa 0,0 l/m² 4,0 km/h (1 Bft) W-SW 0,00 h 0 W/m² 4,7 °C 6,8 °C 5,7 km/h (2 Bft)
05.04.2025 04:00 21,9 °C 7,2 °C 49 % 85 % 1015,8 hPa 0,0 l/m² 7,6 km/h (2 Bft) NW 0,00 h 0 W/m² 4,9 °C 5,9 °C 13,7 km/h (3 Bft)
05.04.2025 05:00 21,9 °C 7,2 °C 49 % 84 % 1015,9 hPa 0,0 l/m² 10,2 km/h (2 Bft) NW 0,00 h 0 W/m² 4,6 °C 4,4 °C 16,7 km/h (3 Bft)
05.04.2025 06:00 21,9 °C 6,6 °C 49 % 85 % 1016,4 hPa 0,0 l/m² 13,1 km/h (3 Bft) N-NW 0,00 h 8 W/m² 4,2 °C 2,1 °C 19,4 km/h (3 Bft)
05.04.2025 07:00 21,8 °C 6,1 °C 48 % 86 % 1016,7 hPa 0,0 l/m² 14,8 km/h (3 Bft) N-NW 0,23 h 41 W/m² 3,8 °C 0,6 °C 20,5 km/h (4 Bft)
05.04.2025 08:00 21,8 °C 6,9 °C 49 % 83 % 1017,4 hPa 0,0 l/m² 15,9 km/h (3 Bft) N-NW 1,00 h 144 W/m² 4,2 °C 1,1 °C 22,0 km/h (4 Bft)
05.04.2025 09:00 21,9 °C 8,5 °C 49 % 75 % 1018,1 hPa 0,0 l/m² 10,4 km/h (2 Bft) N-NW 1,00 h 253 W/m² 4,3 °C 5,8 °C 15,2 km/h (3 Bft)
05.04.2025 10:00 21,9 °C 9,2 °C 49 % 71 % 1018,4 hPa 0,0 l/m² 7,8 km/h (2 Bft) N-NW 1,00 h 285 W/m² 4,1 °C 8,0 °C 12,1 km/h (2 Bft)
05.04.2025 11:00 21,9 °C 11,3 °C 49 % 62 % 1018,5 hPa 0,0 l/m² 9,4 km/h (2 Bft) N-NW 1,00 h 422 W/m² 4,3 °C 9,5 °C 15,4 km/h (3 Bft)
05.04.2025 12:00 21,8 °C 12,9 °C 49 % 53 % 1018,5 hPa 0,0 l/m² 12,5 km/h (2 Bft) N 1,00 h 472 W/m² 3,5 °C 9,8 °C 18,6 km/h (3 Bft)
05.04.2025 13:00 21,8 °C 13,4 °C 49 % 50 % 1018,4 hPa 0,0 l/m² 13,5 km/h (3 Bft) N-NW 1,00 h 555 W/m² 3,1 °C 10,0 °C 20,2 km/h (4 Bft)
05.04.2025 14:00 21,8 °C 13,6 °C 49 % 46 % 1018,0 hPa 0,0 l/m² 15,3 km/h (3 Bft) N 1,00 h 501 W/m² 2,1 °C 9,4 °C 22,3 km/h (4 Bft)
05.04.2025 15:00 21,8 °C 13,4 °C 49 % 45 % 1017,8 hPa 0,0 l/m² 17,3 km/h (3 Bft) N-NW 1,00 h 426 W/m² 1,8 °C 8,6 °C 24,5 km/h (4 Bft)
05.04.2025 16:00 21,7 °C 13,4 °C 49 % 44 % 1018,0 hPa 0,0 l/m² 16,1 km/h (3 Bft) N 1,00 h 372 W/m² 1,5 °C 9,0 °C 23,7 km/h (4 Bft)
05.04.2025 17:00 21,7 °C 12,6 °C 49 % 44 % 1018,5 hPa 0,0 l/m² 16,1 km/h (3 Bft) N 0,95 h 258 W/m² 0,7 °C 8,0 °C 23,8 km/h (4 Bft)
05.04.2025 18:00 21,7 °C 11,1 °C 49 % 47 % 1019,0 hPa 0,0 l/m² 14,5 km/h (3 Bft) N 0,65 h 79 W/m² 0,1 °C 6,9 °C 22,3 km/h (4 Bft)
05.04.2025 19:00 21,7 °C 9,5 °C 49 % 47 % 1019,5 hPa 0,0 l/m² 9,1 km/h (2 Bft) N 0,00 h 15 W/m² -1,1 °C 7,7 °C 15,6 km/h (3 Bft)
05.04.2025 20:00 21,7 °C 7,6 °C 48 % 52 % 1020,6 hPa 0,0 l/m² 10,5 km/h (2 Bft) N-NO 0,00 h 0 W/m² -1,7 °C 4,7 °C 17,2 km/h (3 Bft)
05.04.2025 21:00 21,7 °C 6,2 °C 48 % 55 % 1021,9 hPa 0,0 l/m² 13,5 km/h (3 Bft) N-NO 0,00 h 0 W/m² -2,2 °C 1,4 °C 21,8 km/h (4 Bft)
05.04.2025 22:00 21,7 °C 4,7 °C 48 % 57 % 1023,0 hPa 0,0 l/m² 10,9 km/h (2 Bft) NO 0,00 h 0 W/m² -3,0 °C 1,4 °C 18,1 km/h (3 Bft)
05.04.2025 23:00 21,7 °C 3,4 °C 48 % 57 % 1023,8 hPa 0,0 l/m² 7,9 km/h (2 Bft) NO 0,00 h 0 W/m² -4,3 °C 2,0 °C 14,3 km/h (3 Bft)
06.04.2025 00:00 21,7 °C 2,3 °C 48 % 59 % 1024,5 hPa 0,0 l/m² 6,0 km/h (2 Bft) NO 0,00 h 0 W/m² -4,8 °C 2,0 °C 10,9 km/h (2 Bft)
06.04.2025 01:00 21,7 °C 1,7 °C 48 % 60 % 1025,0 hPa 0,0 l/m² 5,9 km/h (2 Bft) N-NO 0,00 h 0 W/m² -5,3 °C 1,2 °C 10,4 km/h (2 Bft)
06.04.2025 02:00 21,7 °C 1,0 °C 48 % 61 % 1025,3 hPa 0,0 l/m² 4,8 km/h (1 Bft) N-NO 0,00 h 0 W/m² -5,7 °C 0,8 °C 8,3 km/h (2 Bft)
06.04.2025 03:00 21,7 °C -0,2 °C 48 % 66 % 1025,7 hPa 0,0 l/m² 3,5 km/h (1 Bft) N 0,00 h 0 W/m² -5,7 °C -0,2 °C 6,4 km/h (2 Bft)
06.04.2025 04:00 21,7 °C -0,6 °C 47 % 69 % 1025,9 hPa 0,0 l/m² 5,8 km/h (2 Bft) N-NO 0,00 h 0 W/m² -5,6 °C -0,8 °C 10,2 km/h (2 Bft)
06.04.2025 05:00 21,8 °C -0,8 °C 47 % 70 % 1026,1 hPa 0,0 l/m² 4,6 km/h (1 Bft) N-NO 0,00 h 0 W/m² -5,7 °C -0,8 °C 7,8 km/h (2 Bft)
06.04.2025 06:00 21,8 °C -2,2 °C 47 % 74 % 1026,7 hPa 0,0 l/m² 0,3 km/h (0 Bft) W 0,00 h 7 W/m² -6,2 °C -2,2 °C 1,6 km/h (1 Bft)
06.04.2025 07:00 21,8 °C -3,0 °C 47 % 80 % 1027,5 hPa 0,0 l/m² 0,7 km/h (0 Bft) W-SW 0,20 h 29 W/m² -6,0 °C -3,0 °C 1,7 km/h (1 Bft)
06.04.2025 08:00 21,9 °C -0,7 °C 47 % 80 % 1027,9 hPa 0,0 l/m² 1,8 km/h (1 Bft) W-SW 1,00 h 75 W/m² -3,7 °C -0,7 °C 3,7 km/h (1 Bft)
06.04.2025 09:00 21,9 °C 2,4 °C 47 % 69 % 1028,1 hPa 0,0 l/m² 5,2 km/h (1 Bft) N-NW 1,00 h 149 W/m² -2,8 °C 1,8 °C 8,6 km/h (2 Bft)
06.04.2025 10:00 21,9 °C 4,2 °C 47 % 64 % 1028,3 hPa 0,0 l/m² 6,4 km/h (2 Bft) N-NW 1,00 h 234 W/m² -2,1 °C 3,3 °C 11,1 km/h (2 Bft)
06.04.2025 11:00 21,9 °C 5,2 °C 47 % 59 % 1028,0 hPa 0,0 l/m² 8,1 km/h (2 Bft) NO 1,00 h 281 W/m² -2,2 °C 3,5 °C 13,9 km/h (3 Bft)
06.04.2025 12:00 21,9 °C 6,3 °C 47 % 55 % 1027,6 hPa 0,0 l/m² 10,3 km/h (2 Bft) N-NO 1,00 h 331 W/m² -2,1 °C 3,4 °C 16,9 km/h (3 Bft)
06.04.2025 13:00 21,8 °C 7,1 °C 47 % 53 % 1027,3 hPa 0,0 l/m² 10,1 km/h (2 Bft) N-NW 1,00 h 408 W/m² -1,9 °C 4,4 °C 16,2 km/h (3 Bft)
06.04.2025 14:00 21,7 °C 7,5 °C 47 % 51 % 1026,9 hPa 0,0 l/m² 10,7 km/h (2 Bft) N-NW 1,00 h 361 W/m² -1,9 °C 4,5 °C 16,6 km/h (3 Bft)
06.04.2025 15:00 21,7 °C 8,0 °C 47 % 49 % 1026,3 hPa 0,0 l/m² 10,9 km/h (2 Bft) NW 1,00 h 374 W/m² -2,0 °C 5,1 °C 17,2 km/h (3 Bft)
06.04.2025 16:00 21,7 °C 8,8 °C 47 % 45 % 1025,8 hPa 0,0 l/m² 11,4 km/h (2 Bft) N-NW 1,00 h 402 W/m² -2,3 °C 5,7 °C 16,8 km/h (3 Bft)
06.04.2025 17:00 21,8 °C 8,6 °C 47 % 45 % 1025,2 hPa 0,0 l/m² 11,0 km/h (2 Bft) N-NW 1,00 h 244 W/m² -2,5 °C 5,6 °C 16,8 km/h (3 Bft)
06.04.2025 18:00 21,7 °C 7,8 °C 47 % 47 % 1025,1 hPa 0,0 l/m² 12,0 km/h (2 Bft) N 0,78 h 82 W/m² -2,7 °C 4,2 °C 17,8 km/h (3 Bft)
06.04.2025 19:00 21,7 °C 6,6 °C 47 % 51 % 1025,2 hPa 0,0 l/m² 8,3 km/h (2 Bft) N-NW 0,00 h 19 W/m² -2,8 °C 5,1 °C 12,4 km/h (2 Bft)
06.04.2025 20:00 21,6 °C 3,9 °C 47 % 59 % 1025,5 hPa 0,0 l/m² 4,0 km/h (1 Bft) N-NW 0,00 h 0 W/m² -3,5 °C 3,9 °C 5,7 km/h (2 Bft)
06.04.2025 21:00 21,7 °C 0,2 °C 47 % 72 % 1025,8 hPa 0,0 l/m² 1,0 km/h (0 Bft) W 0,00 h 0 W/m² -4,4 °C 0,2 °C 2,2 km/h (1 Bft)
06.04.2025 22:00 21,7 °C -1,1 °C 46 % 77 % 1026,1 hPa 0,0 l/m² 0,5 km/h (0 Bft) W 0,00 h 0 W/m² -4,6 °C -1,1 °C 1,4 km/h (1 Bft)
06.04.2025 23:00 21,6 °C -1,4 °C 46 % 79 % 1026,2 hPa 0,0 l/m² 1,8 km/h (1 Bft) W-SW 0,00 h 0 W/m² -4,5 °C -1,4 °C 2,7 km/h (1 Bft)
Min-Datum _ 02.04.25 06.04.25 03.04.25 03.04.25 31.03.25 - 06.04.25 - - - 06.04.25 06.04.25 06.04.25
_ Min-Zeit 08:02 07:42 18:00 14:56 00:01 - 23:28 - - - 07:01 07:42 23:29
Minimum _ 21,4 °C -3,5 °C 42 % 40 % 1013,4 hPa - 0,0 km/h (0 Bft) - - - -6,5 °C -3,5 °C 0,0 km/h (0 Bft)
Max-Datum _ 04.04.25 04.04.25 31.03.25 03.04.25 01.04.25 01.04.25 31.03.25 - 31.03.25 06.04.25 04.04.25 04.04.25 05.04.25
_ Max-Zeit 21:54 16:06 19:44 06:25 10:28 02:27 01:53 - 14:43 13:18 14:10 16:06 21:48
Maximum _ 22,2 °C 21,3 °C 54 % 93 % 1029,3 hPa 0,2 l/m² 24,1 km/h
W (4 Bft)
- 0,05 h 789 W/m² 11,7 °C 21,3 °C 35,4 km/h
NO (5 Bft)
Durchschnitt _ 21,7 °C 7,9 °C 49 % 73 % 1023,7 hPa #0,6 l/m² 6,5 km/h (2 Bft) N-NW #72:04 h 130 W/m² 2,9 °C 6,5 °C 10,3 km/h (2 Bft)
© 2009 Mathias Hoßbach